sim
Sign-in with your pilot id or email,
or register
Callsign
Passwort

Schedule Details

Flight Number: DLH2036 (1)
Departure: Munich Airport (EDDM) at 09:55
Arrival: Berlin Tegel Airport (EDDT) at 11:05
Route: Lufthansa Passenger Schedule. Enter filed route here before submitting Pirep.

Weather Information
Getting current METAR information for EDDM 201950Z 29001KT CAVOK 11/10 Q1016 NOSIG
Getting current METAR information for EDDT 201950Z 06005KT 030V090 CAVOK 16/06 Q1019 NOSIG

Schedule Frequency

Route Map